createdAt,value
2018-11-06T00:00:31.201Z,37.60
2018-11-06T00:01:31.181Z,36.70
2018-11-06T00:02:31.141Z,35.80
2018-11-06T00:03:31.129Z,37.50
2018-11-06T00:04:31.143Z,34.00
2018-11-06T00:05:33.180Z,35.20
2018-11-06T00:06:32.109Z,34.10
2018-11-06T00:07:33.019Z,33.90
2018-11-06T00:08:33.018Z,34.60
2018-11-06T00:09:32.151Z,36.10
2018-11-06T00:10:31.123Z,37.00
2018-11-06T00:11:32.809Z,37.10
2018-11-06T00:12:32.129Z,35.90
2018-11-06T00:13:33.352Z,36.50
2018-11-06T00:14:31.068Z,34.80
2018-11-06T00:15:31.234Z,34.70
2018-11-06T00:16:32.412Z,34.90
2018-11-06T00:17:31.818Z,34.20
2018-11-06T00:18:31.083Z,32.80
2018-11-06T00:19:31.839Z,33.30
2018-11-06T00:20:31.092Z,33.50
2018-11-06T00:21:31.055Z,35.00
2018-11-06T00:22:34.404Z,33.50
2018-11-06T00:23:31.047Z,34.60
2018-11-06T00:24:31.932Z,33.40
2018-11-06T00:25:32.539Z,34.10
2018-11-06T00:26:33.039Z,34.30
2018-11-06T00:27:31.041Z,33.80
2018-11-06T00:28:33.014Z,33.50
2018-11-06T00:29:31.130Z,34.70
2018-11-06T00:30:31.013Z,33.40
2018-11-06T00:31:33.594Z,32.20
2018-11-06T00:32:32.699Z,33.80
2018-11-06T00:33:32.629Z,32.20
2018-11-06T00:34:31.038Z,36.00
2018-11-06T00:35:31.719Z,35.80
2018-11-06T00:36:31.004Z,34.20
2018-11-06T00:37:30.997Z,33.90
2018-11-06T00:38:30.987Z,34.00
2018-11-06T00:39:30.988Z,33.90
2018-11-06T00:40:30.977Z,32.70
2018-11-06T00:41:32.109Z,36.60
2018-11-06T00:42:30.978Z,35.00
2018-11-06T00:43:30.962Z,35.80
2018-11-06T00:44:30.954Z,36.30
2018-11-06T00:45:30.953Z,34.30
2018-11-06T00:46:35.575Z,36.20
2018-11-06T00:47:31.940Z,35.00
2018-11-06T00:48:30.929Z,35.50
2018-11-06T00:49:31.747Z,35.30
2018-11-06T00:50:30.927Z,31.80
2018-11-06T00:51:32.318Z,33.80
2018-11-06T00:52:30.932Z,32.70
2018-11-06T00:53:31.917Z,33.90
2018-11-06T00:54:30.946Z,32.30
2018-11-06T00:55:31.909Z,33.30
2018-11-06T00:56:30.920Z,33.00
2018-11-06T00:57:30.946Z,33.20
2018-11-06T00:58:30.933Z,33.20
2018-11-06T00:59:30.915Z,33.00
2018-11-06T01:00:30.895Z,34.00
2018-11-06T01:01:31.012Z,31.90
2018-11-06T01:02:32.900Z,31.50
2018-11-06T01:03:35.762Z,32.40
2018-11-06T01:04:30.869Z,32.60
2018-11-06T01:05:33.966Z,32.80
2018-11-06T01:06:30.919Z,31.40
2018-11-06T01:07:30.863Z,33.40
2018-11-06T01:08:30.860Z,33.80
2018-11-06T01:09:32.854Z,34.50
2018-11-06T01:10:30.931Z,34.20
2018-11-06T01:11:30.850Z,32.80
2018-11-06T01:12:33.041Z,33.10
2018-11-06T01:13:30.856Z,33.50
2018-11-06T01:14:34.290Z,32.20
2018-11-06T01:15:30.830Z,34.70
2018-11-06T01:16:30.824Z,35.00
2018-11-06T01:17:30.829Z,31.60
2018-11-06T01:18:30.824Z,33.20
2018-11-06T01:19:30.834Z,31.00
2018-11-06T01:20:30.825Z,33.60
2018-11-06T01:21:30.822Z,34.00
2018-11-06T01:22:32.948Z,33.30
2018-11-06T01:23:30.806Z,32.40
2018-11-06T01:24:32.626Z,34.20
2018-11-06T01:25:30.888Z,34.00
2018-11-06T01:26:30.788Z,33.00
2018-11-06T01:27:30.783Z,33.30
2018-11-06T01:28:32.415Z,32.00
2018-11-06T01:29:31.633Z,33.30
2018-11-06T01:30:30.775Z,32.20
2018-11-06T01:31:30.759Z,34.20
2018-11-06T01:32:34.653Z,34.30
2018-11-06T01:33:30.770Z,33.90
2018-11-06T01:34:32.400Z,33.70
2018-11-06T01:35:31.817Z,32.90
2018-11-06T01:36:32.369Z,34.10
2018-11-06T01:37:30.739Z,32.00
2018-11-06T01:38:30.743Z,32.30
2018-11-06T01:39:32.396Z,30.20
2018-11-06T01:40:30.731Z,32.50
2018-11-06T01:41:30.743Z,31.80
2018-11-06T01:42:30.828Z,31.50
2018-11-06T01:43:30.722Z,32.90
2018-11-06T01:44:32.704Z,33.50
2018-11-06T01:45:30.696Z,33.00
2018-11-06T01:46:30.701Z,35.00
2018-11-06T01:47:30.705Z,33.20
2018-11-06T01:48:30.702Z,33.50
2018-11-06T01:49:30.696Z,32.30
2018-11-06T01:50:30.697Z,33.10
2018-11-06T01:51:32.418Z,32.20
2018-11-06T01:52:30.681Z,32.20
2018-11-06T01:53:31.487Z,32.30
2018-11-06T01:54:30.671Z,33.60
2018-11-06T01:55:30.702Z,33.70
2018-11-06T01:56:30.687Z,33.30
2018-11-06T01:57:30.677Z,31.40
2018-11-06T01:58:30.789Z,32.30
2018-11-06T01:59:30.799Z,33.30
2018-11-06T02:00:30.694Z,33.60
2018-11-06T02:01:32.529Z,33.80
2018-11-06T02:02:32.526Z,34.20
2018-11-06T02:03:31.363Z,33.50
2018-11-06T02:04:32.036Z,33.00
2018-11-06T02:05:32.043Z,33.40
2018-11-06T02:06:31.892Z,32.90
2018-11-06T02:07:31.796Z,33.20
2018-11-06T02:08:32.813Z,32.50
2018-11-06T02:09:30.626Z,32.70
2018-11-06T02:10:31.623Z,31.70
2018-11-06T02:11:35.596Z,30.30
2018-11-06T02:12:32.604Z,34.10
2018-11-06T02:13:30.610Z,32.40
2018-11-06T02:14:31.320Z,33.00
2018-11-06T02:15:31.236Z,32.70
2018-11-06T02:16:31.272Z,33.30
2018-11-06T02:17:31.335Z,32.10
2018-11-06T02:18:30.567Z,32.90
2018-11-06T02:19:31.296Z,32.50
2018-11-06T02:20:30.620Z,32.50
2018-11-06T02:21:31.297Z,33.80
2018-11-06T02:22:31.584Z,32.90
2018-11-06T02:23:31.313Z,34.00
2018-11-06T02:24:30.543Z,31.40
2018-11-06T02:25:31.629Z,32.10
2018-11-06T02:26:31.310Z,34.30
2018-11-06T02:27:31.336Z,33.50
2018-11-06T02:28:30.549Z,34.40
2018-11-06T02:29:31.344Z,35.70
2018-11-06T02:30:31.270Z,36.10
2018-11-06T02:31:30.540Z,35.00
2018-11-06T02:32:31.386Z,36.90
2018-11-06T02:33:31.340Z,36.00
2018-11-06T02:34:31.266Z,34.70
2018-11-06T02:35:30.524Z,34.90
2018-11-06T02:36:31.534Z,36.50
2018-11-06T02:37:31.512Z,39.30
2018-11-06T02:38:30.718Z,37.50
2018-11-06T02:39:31.544Z,37.80
2018-11-06T02:40:31.859Z,36.80
2018-11-06T02:41:31.552Z,37.60
2018-11-06T02:42:31.185Z,38.10
2018-11-06T02:43:30.520Z,37.90
2018-11-06T02:44:30.517Z,35.10
2018-11-06T02:45:38.127Z,37.50
2018-11-06T02:46:38.557Z,36.00
2018-11-06T02:47:38.156Z,33.90
2018-11-06T02:48:38.172Z,32.90
2018-11-06T02:49:38.239Z,33.70
2018-11-06T02:50:37.814Z,33.50
2018-11-06T02:51:37.787Z,32.70
2018-11-06T02:52:37.807Z,31.20
2018-11-06T02:53:38.184Z,32.20
2018-11-06T02:54:38.215Z,32.50
2018-11-06T02:55:37.840Z,31.40
2018-11-06T02:56:37.827Z,32.80
2018-11-06T02:57:46.042Z,30.70
2018-11-06T02:58:38.208Z,31.40
2018-11-06T02:59:31.580Z,30.90
2018-11-06T03:00:31.840Z,32.30
2018-11-06T03:01:31.792Z,33.30
2018-11-06T03:02:33.931Z,32.60
2018-11-06T03:03:31.903Z,33.40
2018-11-06T03:04:31.855Z,33.80
2018-11-06T03:05:31.893Z,34.10
2018-11-06T03:06:33.722Z,34.30
2018-11-06T03:07:31.887Z,35.00
2018-11-06T03:08:31.939Z,35.60
2018-11-06T03:09:32.019Z,33.30
2018-11-06T03:10:32.198Z,36.10
2018-11-06T03:11:32.023Z,32.40
2018-11-06T03:12:31.779Z,34.00
2018-11-06T03:13:31.814Z,33.70
2018-11-06T03:14:31.826Z,32.30
2018-11-06T03:15:32.117Z,32.10
2018-11-06T03:16:31.762Z,35.50
2018-11-06T03:17:31.809Z,33.80
2018-11-06T03:18:32.067Z,34.20
2018-11-06T03:19:31.768Z,32.80
2018-11-06T03:20:32.022Z,32.80
2018-11-06T03:21:32.017Z,33.00
2018-11-06T03:22:32.025Z,32.20
2018-11-06T03:23:32.035Z,31.80
2018-11-06T03:24:32.040Z,32.60
2018-11-06T03:25:32.098Z,30.10
2018-11-06T03:26:31.834Z,30.80
2018-11-06T03:27:31.943Z,32.30
2018-11-06T03:28:31.845Z,31.80
2018-11-06T03:29:31.924Z,31.10
2018-11-06T03:30:31.962Z,33.90
2018-11-06T03:31:31.916Z,31.90
2018-11-06T03:32:31.853Z,31.50
2018-11-06T03:33:31.927Z,32.70
2018-11-06T03:34:32.022Z,33.20
2018-11-06T03:35:31.859Z,32.00
2018-11-06T03:36:31.875Z,33.10
2018-11-06T03:37:31.849Z,29.00
2018-11-06T03:38:31.856Z,30.80
2018-11-06T03:39:31.887Z,31.70
2018-11-06T03:40:32.043Z,32.50
2018-11-06T03:41:33.883Z,30.90
2018-11-06T03:42:31.888Z,32.50
2018-11-06T03:43:32.024Z,33.90
2018-11-06T03:44:31.903Z,31.50
2018-11-06T03:45:32.028Z,31.50
2018-11-06T03:46:31.905Z,34.40
2018-11-06T03:47:32.491Z,33.80
2018-11-06T03:48:31.855Z,33.90
2018-11-06T03:49:31.964Z,31.30
2018-11-06T03:50:31.921Z,31.80
2018-11-06T03:51:33.738Z,32.60
2018-11-06T03:52:31.969Z,34.30
2018-11-06T03:53:31.923Z,33.80
2018-11-06T03:54:31.951Z,34.50
2018-11-06T03:55:31.973Z,33.60
2018-11-06T03:56:31.931Z,33.20
2018-11-06T03:57:31.950Z,32.20
2018-11-06T03:58:32.384Z,31.40
2018-11-06T03:59:31.526Z,31.40
2018-11-06T04:00:31.859Z,32.60
2018-11-06T04:01:31.852Z,34.00
2018-11-06T04:02:33.390Z,31.00
2018-11-06T04:03:31.515Z,30.80
2018-11-06T04:04:31.512Z,30.80
2018-11-06T04:05:32.069Z,29.80
2018-11-06T04:06:31.570Z,29.90
2018-11-06T04:07:31.503Z,27.90
2018-11-06T04:08:31.888Z,31.10
2018-11-06T04:09:31.577Z,30.20
2018-11-06T04:10:31.632Z,30.40
2018-11-06T04:11:31.595Z,31.00
2018-11-06T04:12:31.579Z,27.30
2018-11-06T04:13:31.575Z,29.70
2018-11-06T04:14:31.575Z,28.70
2018-11-06T04:15:33.582Z,29.50
2018-11-06T04:16:31.672Z,29.20
2018-11-06T04:17:31.742Z,31.00
2018-11-06T04:18:31.777Z,33.40
2018-11-06T04:19:33.893Z,29.00
2018-11-06T04:20:31.670Z,30.30
2018-11-06T04:22:45.387Z,31.30
2018-11-06T04:23:31.623Z,27.20
2018-11-06T04:24:32.087Z,29.20
2018-11-06T04:25:31.869Z,28.20
2018-11-06T04:26:31.795Z,29.20
2018-11-06T04:27:31.779Z,27.00
2018-11-06T04:28:31.754Z,25.10
2018-11-06T04:29:31.857Z,26.70
2018-11-06T04:30:33.594Z,26.70
2018-11-06T04:31:31.624Z,26.80
2018-11-06T04:32:31.641Z,26.20
2018-11-06T04:33:31.559Z,29.10
2018-11-06T04:34:31.545Z,29.30
2018-11-06T04:35:31.697Z,29.10
2018-11-06T04:36:31.464Z,28.80
2018-11-06T04:37:31.448Z,27.20
2018-11-06T04:38:31.413Z,26.00
2018-11-06T04:39:31.392Z,27.10
2018-11-06T04:40:31.383Z,27.30
2018-11-06T04:41:31.462Z,26.40
2018-11-06T04:42:31.390Z,28.70
2018-11-06T04:43:31.401Z,28.00
2018-11-06T04:44:31.466Z,28.10
2018-11-06T04:45:31.952Z,27.60
2018-11-06T04:46:31.567Z,26.60
2018-11-06T04:47:31.548Z,26.20
2018-11-06T04:48:31.563Z,28.40
2018-11-06T04:49:31.565Z,28.70
2018-11-06T04:50:31.569Z,27.90
2018-11-06T04:51:31.543Z,26.10
2018-11-06T04:52:31.570Z,26.50
2018-11-06T04:53:31.551Z,26.50
2018-11-06T04:54:31.580Z,28.00
2018-11-06T04:55:31.542Z,26.80
2018-11-06T04:56:31.337Z,28.50
2018-11-06T04:57:31.872Z,26.60
2018-11-06T04:58:31.860Z,27.80
2018-11-06T04:59:31.045Z,26.70
2018-11-06T05:00:31.585Z,29.30
2018-11-06T05:01:31.360Z,28.40
2018-11-06T05:02:31.429Z,28.30
2018-11-06T05:03:31.394Z,26.40
2018-11-06T05:04:33.187Z,26.60
2018-11-06T05:05:31.366Z,26.50
2018-11-06T05:06:31.567Z,27.50
2018-11-06T05:07:31.584Z,27.10
2018-11-06T05:08:31.542Z,26.90
2018-11-06T05:09:33.107Z,27.00
2018-11-06T05:10:31.545Z,27.80
2018-11-06T05:11:31.410Z,26.80
2018-11-06T05:12:31.370Z,26.20
2018-11-06T05:13:31.365Z,25.80
2018-11-06T05:14:31.983Z,25.30
2018-11-06T05:15:31.563Z,26.20
2018-11-06T05:16:31.551Z,26.10
2018-11-06T05:17:31.404Z,27.20
2018-11-06T05:18:31.541Z,27.00
2018-11-06T05:19:31.368Z,25.50
2018-11-06T05:20:31.551Z,27.00
2018-11-06T05:21:31.641Z,26.40
2018-11-06T05:22:31.413Z,27.30
2018-11-06T05:23:31.645Z,27.40
2018-11-06T05:24:31.431Z,25.80
2018-11-06T05:25:33.126Z,25.90
2018-11-06T05:26:31.586Z,28.00
2018-11-06T05:27:31.379Z,26.80
2018-11-06T05:28:31.565Z,25.90
2018-11-06T05:29:31.293Z,25.70
2018-11-06T05:30:31.083Z,26.80
2018-11-06T05:31:31.559Z,26.50
2018-11-06T05:32:31.308Z,27.40
2018-11-06T05:33:31.356Z,24.80
2018-11-06T05:34:31.569Z,26.00
2018-11-06T05:35:31.552Z,24.80
2018-11-06T05:36:31.622Z,26.40
2018-11-06T05:37:31.401Z,25.00
2018-11-06T05:38:31.411Z,26.30
2018-11-06T05:39:31.403Z,26.20
2018-11-06T05:40:31.441Z,25.70
2018-11-06T05:41:31.557Z,27.50
2018-11-06T05:42:31.425Z,26.50
2018-11-06T05:43:31.885Z,26.50
2018-11-06T05:44:31.077Z,26.90
2018-11-06T05:45:31.118Z,26.00
2018-11-06T05:46:31.028Z,25.80
2018-11-06T05:47:31.680Z,27.10
2018-11-06T05:48:31.052Z,25.70
2018-11-06T05:49:31.336Z,24.70
2018-11-06T05:50:31.158Z,24.60
2018-11-06T05:51:31.077Z,24.10
2018-11-06T05:52:31.524Z,25.20
2018-11-06T05:53:31.616Z,25.30
2018-11-06T05:54:31.096Z,25.40
2018-11-06T05:55:30.892Z,24.10
2018-11-06T05:56:31.146Z,26.10
2018-11-06T05:57:31.220Z,26.80
2018-11-06T05:58:31.258Z,24.70
2018-11-06T05:59:31.220Z,25.30
2018-11-06T06:00:31.381Z,26.00
2018-11-06T06:01:31.309Z,24.40
2018-11-06T06:02:31.287Z,25.20
2018-11-06T06:03:31.172Z,26.20
2018-11-06T06:04:31.096Z,26.20
2018-11-06T06:05:31.091Z,25.60
2018-11-06T06:06:31.379Z,25.30
2018-11-06T06:07:31.108Z,25.80
2018-11-06T06:08:31.061Z,24.70
2018-11-06T06:09:31.056Z,24.70
2018-11-06T06:10:31.056Z,26.00
2018-11-06T06:11:33.124Z,25.60
2018-11-06T06:12:31.601Z,26.20
2018-11-06T06:13:31.058Z,26.50
2018-11-06T06:14:31.453Z,25.10
2018-11-06T06:15:31.202Z,26.70
2018-11-06T06:16:32.072Z,28.30
2018-11-06T06:17:31.355Z,26.70
2018-11-06T06:18:30.872Z,25.70
2018-11-06T06:19:31.056Z,25.80
2018-11-06T06:20:31.546Z,27.90
2018-11-06T06:21:31.297Z,25.50
2018-11-06T06:22:31.470Z,25.60
2018-11-06T06:23:31.053Z,25.10
2018-11-06T06:24:31.414Z,25.50
2018-11-06T06:25:31.488Z,24.60
2018-11-06T06:26:31.022Z,24.10
2018-11-06T06:27:31.341Z,24.00
2018-11-06T06:28:31.278Z,27.00
2018-11-06T06:29:30.619Z,25.20
2018-11-06T06:30:31.603Z,25.10
2018-11-06T06:31:31.079Z,26.50
2018-11-06T06:32:30.879Z,25.60
2018-11-06T06:33:31.061Z,25.30
2018-11-06T06:34:31.467Z,28.20
2018-11-06T06:35:31.518Z,28.40
2018-11-06T06:36:31.059Z,27.90
2018-11-06T06:37:30.906Z,26.50
2018-11-06T06:38:31.155Z,25.20
2018-11-06T06:39:31.594Z,25.80
2018-11-06T06:40:31.159Z,25.60
2018-11-06T06:41:31.113Z,26.50
2018-11-06T06:42:30.988Z,26.40
2018-11-06T06:43:32.927Z,26.20
2018-11-06T06:44:31.262Z,27.80
2018-11-06T06:45:58.557Z,28.30
2018-11-06T06:46:31.282Z,26.90
2018-11-06T06:47:32.973Z,25.40
2018-11-06T06:50:04.103Z,27.10
2018-11-06T06:51:04.955Z,27.80
2018-11-06T06:53:17.143Z,25.70
2018-11-06T06:53:59.194Z,25.50
2018-11-06T06:55:54.216Z,25.10
2018-11-06T06:56:53.788Z,25.10
2018-11-06T06:58:47.865Z,26.10
2018-11-06T06:59:48.388Z,26.70
2018-11-06T07:01:52.189Z,25.70
2018-11-06T07:03:56.865Z,26.30
2018-11-06T07:04:57.181Z,26.30
2018-11-06T07:08:26.113Z,26.60
2018-11-06T07:09:25.538Z,27.50
2018-11-06T07:11:28.416Z,26.30
2018-11-06T07:13:47.583Z,25.20
2018-11-06T07:14:47.926Z,26.00
2018-11-06T07:16:42.275Z,25.30
2018-11-06T07:17:42.439Z,25.30
2018-11-06T07:19:37.138Z,26.50
2018-11-06T07:20:51.638Z,24.70
2018-11-06T07:21:57.624Z,25.10
2018-11-06T07:22:51.419Z,24.60
2018-11-06T07:23:37.038Z,25.60
2018-11-06T07:24:37.001Z,23.80
2018-11-06T07:25:37.031Z,24.10
2018-11-06T07:26:37.129Z,23.80
2018-11-06T07:27:36.941Z,25.00
2018-11-06T07:28:36.611Z,24.80
2018-11-06T07:29:37.182Z,25.40
2018-11-06T07:30:38.881Z,25.00
2018-11-06T07:31:39.549Z,24.80
2018-11-06T07:32:36.505Z,25.50
2018-11-06T07:33:37.626Z,25.10
2018-11-06T07:34:36.724Z,26.90
2018-11-06T07:35:37.201Z,26.30
2018-11-06T07:38:08.830Z,26.00
2018-11-06T07:39:10.364Z,26.30
2018-11-06T07:41:04.620Z,24.60
2018-11-06T07:42:04.902Z,25.60
2018-11-06T07:44:00.846Z,26.20
2018-11-06T07:46:15.534Z,25.80
2018-11-06T07:47:15.903Z,25.90
2018-11-06T07:48:22.677Z,25.80
2018-11-06T07:49:23.526Z,25.30
2018-11-06T07:50:16.508Z,25.80
2018-11-06T07:51:15.874Z,26.00
2018-11-06T07:52:23.033Z,26.20
2018-11-06T07:53:22.382Z,25.10
2018-11-06T07:54:16.729Z,25.40
2018-11-06T07:55:20.264Z,25.30
2018-11-06T07:56:15.607Z,25.10
2018-11-06T07:57:19.215Z,24.80
2018-11-06T07:58:22.712Z,24.90
2018-11-06T07:59:15.934Z,25.00
2018-11-06T08:00:18.392Z,23.90
2018-11-06T08:01:17.691Z,23.10
2018-11-06T08:02:16.933Z,23.30
2018-11-06T08:03:16.427Z,24.90
2018-11-06T08:04:15.924Z,24.60
2018-11-06T08:05:15.975Z,25.20
2018-11-06T08:06:15.497Z,23.00
2018-11-06T08:07:16.575Z,23.80
2018-11-06T08:08:16.858Z,24.10
2018-11-06T08:09:15.693Z,24.20
2018-11-06T08:10:16.222Z,24.80
2018-11-06T08:11:18.327Z,25.10
2018-11-06T08:12:16.280Z,25.40
2018-11-06T08:13:16.091Z,24.20
2018-11-06T08:14:15.622Z,25.80
2018-11-06T08:15:16.370Z,24.30
2018-11-06T08:16:16.169Z,25.10
2018-11-06T08:17:15.928Z,24.40
2018-11-06T08:18:16.480Z,25.10
2018-11-06T08:19:15.689Z,24.40
2018-11-06T08:20:16.376Z,24.90
2018-11-06T08:21:14.606Z,26.30
2018-11-06T08:22:14.552Z,23.70
2018-11-06T08:23:14.594Z,24.20
2018-11-06T08:24:14.546Z,24.10
2018-11-06T08:25:14.534Z,25.30
2018-11-06T08:26:16.003Z,23.10
2018-11-06T08:27:14.555Z,23.80
2018-11-06T08:28:14.526Z,26.10
2018-11-06T08:29:38.631Z,24.50
2018-11-06T08:30:14.749Z,24.00
2018-11-06T08:31:16.088Z,23.90
2018-11-06T08:32:16.084Z,23.50
2018-11-06T08:33:15.535Z,24.20
2018-11-06T08:34:15.659Z,24.50
2018-11-06T08:35:16.611Z,24.50
2018-11-06T08:36:14.499Z,23.90
2018-11-06T08:37:14.499Z,23.50
2018-11-06T08:38:14.747Z,24.00
2018-11-06T08:39:14.570Z,24.30
2018-11-06T08:40:43.161Z,22.90
2018-11-06T08:41:14.527Z,23.80
2018-11-06T08:42:15.781Z,22.40
2018-11-06T08:43:15.986Z,23.50
2018-11-06T08:44:17.797Z,23.60
2018-11-06T08:45:16.216Z,22.50
2018-11-06T08:46:15.536Z,22.60
2018-11-06T08:47:14.430Z,21.30
2018-11-06T08:48:17.473Z,22.10
2018-11-06T08:49:21.862Z,22.30
2018-11-06T08:50:14.529Z,22.50
2018-11-06T08:51:15.792Z,22.10
2018-11-06T08:52:14.528Z,21.60
2018-11-06T08:53:15.371Z,21.80
2018-11-06T08:54:15.151Z,21.80
2018-11-06T08:55:17.944Z,21.90
2018-11-06T08:56:14.423Z,21.60
2018-11-06T08:57:14.419Z,21.30
2018-11-06T08:58:21.077Z,21.60
2018-11-06T08:59:14.514Z,20.90
2018-11-06T09:00:14.415Z,21.50
2018-11-06T09:01:16.913Z,21.50
2018-11-06T09:02:15.897Z,21.70
2018-11-06T09:03:14.497Z,22.10
2018-11-06T09:04:14.584Z,21.60
2018-11-06T09:05:15.601Z,21.20
2018-11-06T09:06:17.147Z,20.60
2018-11-06T09:07:15.491Z,20.40
2018-11-06T09:08:15.458Z,19.50
2018-11-06T09:09:14.367Z,19.50
2018-11-06T09:11:47.845Z,19.00
2018-11-06T09:12:51.794Z,19.60
2018-11-06T09:14:42.799Z,18.50
2018-11-06T09:15:42.420Z,18.70
2018-11-06T09:17:39.944Z,19.00
2018-11-06T09:18:37.189Z,18.80
2018-11-06T09:20:32.840Z,18.50
2018-11-06T09:22:46.573Z,19.30
2018-11-06T09:23:46.422Z,18.70
2018-11-06T09:25:41.106Z,18.50
2018-11-06T09:26:41.064Z,19.30
2018-11-06T09:28:38.518Z,20.40
2018-11-06T09:29:35.802Z,19.30
2018-11-06T09:31:30.412Z,16.90
2018-11-06T09:32:31.879Z,17.30
2018-11-06T09:34:25.293Z,16.90
2018-11-06T09:35:26.074Z,16.50
2018-11-06T09:37:19.895Z,16.20
2018-11-06T09:38:19.726Z,16.20
2018-11-06T09:40:17.059Z,16.20
2018-11-06T09:41:16.340Z,16.10
2018-11-06T09:43:09.132Z,16.20
2018-11-06T09:44:10.780Z,15.80
2018-11-06T09:46:03.865Z,15.00
2018-11-06T09:47:03.737Z,14.50
2018-11-06T09:48:58.409Z,14.70
2018-11-06T09:49:58.444Z,14.00
2018-11-06T09:51:53.292Z,14.50
2018-11-06T09:52:53.103Z,14.10
2018-11-06T09:54:47.937Z,14.50
2018-11-06T09:55:47.709Z,14.90
2018-11-06T09:57:44.983Z,13.60
2018-11-06T09:58:42.364Z,14.00
2018-11-06T10:00:37.952Z,14.00
2018-11-06T10:01:38.156Z,14.30
2018-11-06T10:03:31.806Z,14.00
2018-11-06T10:05:48.072Z,13.30
2018-11-06T10:06:48.323Z,13.60
2018-11-06T10:08:44.612Z,13.30
2018-11-06T10:09:43.699Z,13.70
2018-11-06T10:11:38.942Z,13.20
2018-11-06T10:12:38.269Z,13.70
2018-11-06T10:14:35.594Z,13.10
2018-11-06T10:15:33.237Z,14.00
2018-11-06T10:17:27.139Z,14.50
2018-11-06T10:18:28.912Z,13.60
2018-11-06T10:20:22.124Z,13.40
2018-11-06T10:21:21.884Z,13.50
2018-11-06T10:23:17.349Z,14.00
2018-11-06T10:24:16.584Z,13.10
2018-11-06T10:26:13.628Z,13.60
2018-11-06T10:27:13.364Z,14.10
2018-11-06T10:29:07.598Z,14.50
2018-11-06T10:30:07.404Z,14.30
2018-11-06T10:32:01.605Z,14.60
2018-11-06T10:33:01.240Z,13.70
2018-11-06T10:35:13.602Z,13.90
2018-11-06T10:35:54.690Z,13.90
2018-11-06T10:37:50.929Z,13.20
2018-11-06T10:40:03.680Z,13.40
2018-11-06T10:41:04.380Z,13.80
2018-11-06T10:42:59.812Z,14.50
2018-11-06T10:43:58.365Z,13.80
2018-11-06T10:45:52.980Z,13.90
2018-11-06T10:46:53.072Z,13.20
2018-11-06T10:49:08.942Z,15.60
2018-11-06T10:49:50.909Z,15.10
2018-11-06T10:51:42.232Z,13.80
2018-11-06T10:52:41.804Z,14.10
2018-11-06T10:54:58.409Z,14.70
2018-11-06T10:56:31.141Z,14.80
2018-11-06T10:57:33.984Z,15.80
2018-11-06T10:59:25.869Z,16.20
2018-11-06T11:00:26.251Z,15.90
2018-11-06T11:02:23.712Z,15.60
2018-11-06T11:03:22.993Z,15.20
2018-11-06T11:05:15.210Z,14.60
2018-11-06T11:06:15.966Z,14.90
2018-11-06T11:08:09.983Z,13.90
2018-11-06T11:09:09.893Z,13.70
2018-11-06T11:11:12.133Z,14.50
2018-11-06T11:12:05.807Z,14.20
2018-11-06T11:14:00.486Z,14.30
2018-11-06T11:14:58.840Z,13.50
2018-11-06T11:16:22.261Z,13.70
2018-11-06T11:16:58.867Z,13.10
2018-11-06T11:18:00.520Z,13.00
2018-11-06T11:18:58.879Z,13.30
2018-11-06T11:20:00.170Z,12.50
2018-11-06T11:20:59.585Z,12.80
2018-11-06T11:22:00.055Z,11.90
2018-11-06T11:23:02.487Z,12.60
2018-11-06T11:24:00.967Z,13.40
2018-11-06T11:25:00.197Z,12.30
2018-11-06T11:26:00.421Z,12.00
2018-11-06T11:27:00.429Z,12.50
2018-11-06T11:28:00.493Z,12.20
2018-11-06T11:29:20.726Z,12.20
2018-11-06T11:30:00.965Z,12.50
2018-11-06T11:31:00.474Z,12.60
2018-11-06T11:32:00.480Z,12.40
2018-11-06T11:32:59.947Z,12.50
2018-11-06T11:34:00.428Z,12.50
2018-11-06T11:35:00.511Z,12.80
2018-11-06T11:36:00.476Z,12.40
2018-11-06T11:37:00.946Z,12.70
2018-11-06T11:38:02.968Z,12.40
2018-11-06T11:38:59.942Z,12.90
2018-11-06T11:40:00.838Z,12.70
2018-11-06T11:41:00.495Z,12.60
2018-11-06T11:42:00.518Z,12.00
2018-11-06T11:43:00.353Z,12.90
2018-11-06T11:44:01.693Z,11.90
2018-11-06T11:45:02.051Z,12.10
2018-11-06T11:46:00.552Z,11.80
2018-11-06T11:47:55.709Z,12.10
2018-11-06T11:48:55.274Z,12.10
2018-11-06T11:49:55.068Z,11.90
2018-11-06T11:50:55.382Z,11.60
2018-11-06T11:51:55.190Z,11.70
2018-11-06T11:52:55.230Z,12.40
2018-11-06T11:53:55.821Z,13.10
2018-11-06T11:54:55.668Z,12.30
2018-11-06T11:55:55.850Z,12.10
2018-11-06T11:56:55.292Z,12.90
2018-11-06T11:57:55.823Z,12.80
2018-11-06T11:58:55.461Z,13.30
2018-11-06T11:59:57.708Z,12.50
2018-11-06T12:00:57.383Z,13.00
2018-11-06T12:01:56.175Z,13.70
2018-11-06T12:02:55.644Z,13.80
2018-11-06T12:03:55.475Z,13.30
2018-11-06T12:04:58.834Z,13.20
2018-11-06T12:05:55.417Z,12.90
2018-11-06T12:06:56.863Z,13.50
2018-11-06T12:07:55.147Z,13.30
2018-11-06T12:08:55.542Z,13.60
2018-11-06T12:09:56.147Z,13.90
2018-11-06T12:10:57.401Z,13.20
2018-11-06T12:11:57.352Z,13.20
2018-11-06T12:12:55.472Z,14.00
2018-11-06T12:13:55.393Z,13.40
2018-11-06T12:14:55.238Z,13.50
2018-11-06T12:15:55.379Z,13.80
2018-11-06T12:16:55.282Z,13.00
2018-11-06T12:17:55.650Z,14.30
2018-11-06T12:18:55.883Z,14.10
2018-11-06T12:19:55.837Z,14.30
2018-11-06T12:20:55.291Z,13.30
2018-11-06T12:21:55.418Z,13.20
2018-11-06T12:22:55.839Z,14.10
2018-11-06T12:23:55.700Z,13.80
2018-11-06T12:24:55.956Z,13.80
2018-11-06T12:25:55.870Z,13.50
2018-11-06T12:26:56.346Z,13.40
2018-11-06T12:28:09.202Z,12.90
2018-11-06T12:28:55.380Z,13.50
2018-11-06T12:29:55.462Z,13.10
2018-11-06T12:30:55.882Z,13.00
2018-11-06T12:31:55.843Z,12.70
2018-11-06T12:32:55.669Z,12.90
2018-11-06T12:34:04.651Z,12.90
2018-11-06T12:35:01.698Z,13.00
2018-11-06T12:35:55.370Z,12.40
2018-11-06T12:37:01.701Z,12.80
2018-11-06T12:37:55.820Z,12.30
2018-11-06T12:39:56.194Z,13.20
2018-11-06T12:40:57.686Z,13.10
2018-11-06T12:41:57.688Z,13.10
2018-11-06T12:43:10.263Z,12.60
2018-11-06T12:43:55.672Z,13.00
2018-11-06T12:45:01.672Z,12.90
2018-11-06T12:45:55.480Z,12.70
2018-11-06T12:46:55.723Z,12.80
2018-11-06T12:47:55.855Z,12.40
2018-11-06T12:48:57.241Z,12.40
2018-11-06T12:49:57.480Z,12.70
2018-11-06T12:52:10.123Z,12.40
2018-11-06T12:53:10.669Z,13.20
2018-11-06T12:55:04.295Z,13.00
2018-11-06T12:56:04.893Z,12.10
2018-11-06T12:58:00.636Z,12.20
2018-11-06T12:58:59.402Z,12.80
2018-11-06T13:00:00.517Z,11.90
2018-11-06T13:01:00.901Z,12.10
2018-11-06T13:02:01.058Z,13.00
2018-11-06T13:03:00.584Z,11.40
2018-11-06T13:04:01.007Z,12.10
2018-11-06T13:05:00.838Z,12.70
2018-11-06T13:06:00.902Z,12.20
2018-11-06T13:07:03.425Z,11.80
2018-11-06T13:08:01.454Z,12.20
2018-11-06T13:09:01.432Z,12.10
2018-11-06T13:10:01.135Z,11.30
2018-11-06T13:11:01.106Z,12.10
2018-11-06T13:12:00.557Z,11.90
2018-11-06T13:13:01.210Z,11.40
2018-11-06T13:14:01.597Z,11.90
2018-11-06T13:15:01.570Z,11.30
2018-11-06T13:16:01.215Z,11.50
2018-11-06T13:17:01.337Z,11.90
2018-11-06T13:18:01.436Z,11.10
2018-11-06T13:19:03.491Z,11.60
2018-11-06T13:20:01.491Z,11.00
2018-11-06T13:21:01.290Z,10.40
2018-11-06T13:22:01.645Z,11.50
2018-11-06T13:23:01.407Z,10.60
2018-11-06T13:24:02.894Z,11.10
2018-11-06T13:25:02.690Z,11.30
2018-11-06T13:26:01.652Z,10.60
2018-11-06T13:27:01.082Z,11.10
2018-11-06T13:28:00.689Z,10.80
2018-11-06T13:29:01.304Z,11.50
2018-11-06T13:30:01.185Z,11.80
2018-11-06T13:31:00.952Z,10.50
2018-11-06T13:32:01.495Z,10.50
2018-11-06T13:33:01.427Z,10.50
2018-11-06T13:34:01.584Z,10.20
2018-11-06T13:35:01.136Z,11.10
2018-11-06T13:35:59.530Z,10.90
2018-11-06T13:36:59.419Z,10.40
2018-11-06T13:38:01.111Z,10.80
2018-11-06T13:39:16.434Z,11.10
2018-11-06T13:40:01.259Z,10.70
2018-11-06T13:40:59.545Z,11.00
2018-11-06T13:41:59.536Z,9.90
2018-11-06T13:42:59.631Z,10.90
2018-11-06T13:43:59.639Z,10.90
2018-11-06T13:45:00.496Z,11.70
2018-11-06T13:45:59.462Z,10.50
2018-11-06T13:47:59.531Z,11.00
2018-11-06T13:48:59.468Z,10.20
2018-11-06T13:49:59.606Z,10.20
2018-11-06T13:50:59.555Z,10.70
2018-11-06T13:52:00.211Z,10.80
2018-11-06T13:52:59.650Z,11.00
2018-11-06T13:53:59.763Z,10.80
2018-11-06T13:54:59.492Z,10.00
2018-11-06T13:55:59.580Z,10.80
2018-11-06T13:57:00.665Z,10.60
2018-11-06T13:58:03.496Z,10.40
2018-11-06T13:58:59.468Z,10.40